Terminal Aerodrome Forecast
Issued by NWS

Home | Current Version | Previous Version | Text Only | Print | Product List | Glossary On
Versions: 1 2 3 4 5 6 7 8 9 10 11 12 13 14 15 16
000
FTUS44 KLZK 300500
TAFLLQ
TAF
KLLQ 300520Z 3006/3106 22008KT P6SM VCTS FEW050CB SCT080
      TEMPO 3006/3008 -TSRA BKN035CB
     FM300800 VRB06KT P6SM FEW035
     FM302200 17005KT P6SM SCT040 SCT120=

USA.gov is the U.S. government's official web portal to all federal, state and local government web resources and services.